Time,TemperatureF,DewpointF,PressureIn,WindDirection,WindDirectionDegrees,WindSpeedMPH,WindSpeedGustMPH,Humidity,HourlyPrecipIn,Conditions,Clouds,dailyrainin,SoftwareType,DateUTC
2013-06-30 00:04:00,65.0,64.0,29.71,ESE,106,0.0,0.0,98,0.00,,,0.00,weatherlink.com 1.10,2013-06-30 04:04:00,
2013-06-30 00:19:00,65.0,64.0,29.71,ESE,107,0.0,0.0,98,0.00,,,0.00,weatherlink.com 1.10,2013-06-30 04:19:00,
2013-06-30 00:33:00,64.7,64.0,29.72,ESE,106,0.0,0.0,98,0.00,,,0.00,weatherlink.com 1.10,2013-06-30 04:33:00,
2013-06-30 00:47:00,64.7,64.0,29.72,ESE,106,0.0,0.0,98,0.00,,,0.00,weatherlink.com 1.10,2013-06-30 04:47:00,
2013-06-30 01:02:00,64.8,64.0,29.72,ESE,107,0.0,0.0,98,0.00,,,0.00,weatherlink.com 1.10,2013-06-30 05:02:00,
2013-06-30 01:17:00,64.9,64.0,29.72,ESE,107,0.0,0.0,98,0.00,,,0.00,weatherlink.com 1.10,2013-06-30 05:17:00,
2013-06-30 01:31:00,64.9,64.0,29.73,ESE,107,0.0,0.0,98,0.00,,,0.00,weatherlink.com 1.10,2013-06-30 05:31:00,
2013-06-30 01:45:00,65.0,64.0,29.73,ESE,107,0.0,0.0,97,0.00,,,0.00,weatherlink.com 1.10,2013-06-30 05:45:00,
2013-06-30 02:00:00,65.0,64.0,29.73,ESE,107,0.0,0.0,98,0.00,,,0.00,weatherlink.com 1.10,2013-06-30 06:00:00,
2013-06-30 02:14:00,64.9,64.0,29.73,ESE,107,0.0,0.0,98,0.00,,,0.00,weatherlink.com 1.10,2013-06-30 06:14:00,
2013-06-30 02:29:00,64.9,64.0,29.74,ESE,107,0.0,0.0,98,0.00,,,0.00,weatherlink.com 1.10,2013-06-30 06:29:00,
2013-06-30 02:43:00,65.0,64.0,29.73,ESE,107,0.0,0.0,98,0.00,,,0.00,weatherlink.com 1.10,2013-06-30 06:43:00,
2013-06-30 02:57:00,64.8,64.0,29.73,ESE,107,0.0,0.0,97,0.00,,,0.00,weatherlink.com 1.10,2013-06-30 06:57:00,
2013-06-30 03:12:00,64.5,64.0,29.73,ESE,106,0.0,0.0,98,0.00,,,0.00,weatherlink.com 1.10,2013-06-30 07:12:00,
2013-06-30 03:26:00,64.1,63.0,29.73,ESE,106,0.0,0.0,97,0.00,,,0.00,weatherlink.com 1.10,2013-06-30 07:26:00,
2013-06-30 03:41:00,63.7,63.0,29.74,ESE,107,0.0,0.0,98,0.00,,,0.00,weatherlink.com 1.10,2013-06-30 07:41:00,
2013-06-30 03:55:00,63.5,63.0,29.73,ESE,107,0.0,0.0,98,0.00,,,0.00,weatherlink.com 1.10,2013-06-30 07:55:00,
2013-06-30 04:10:00,63.2,63.0,29.74,ESE,107,0.0,0.0,98,0.00,,,0.00,weatherlink.com 1.10,2013-06-30 08:10:00,
2013-06-30 04:24:00,63.0,63.0,29.75,ESE,107,0.0,0.0,99,0.00,,,0.00,weatherlink.com 1.10,2013-06-30 08:24:00,
2013-06-30 04:39:00,63.0,63.0,29.76,ESE,106,0.0,0.0,99,0.00,,,0.00,weatherlink.com 1.10,2013-06-30 08:39:00,
2013-06-30 04:53:00,63.1,63.0,29.76,ESE,106,0.0,0.0,99,0.00,,,0.00,weatherlink.com 1.10,2013-06-30 08:53:00,
2013-06-30 05:07:00,63.1,63.0,29.76,ESE,106,0.0,0.0,99,0.00,,,0.00,weatherlink.com 1.10,2013-06-30 09:07:00,
2013-06-30 05:22:00,62.9,63.0,29.76,ESE,107,0.0,0.0,99,0.00,,,0.00,weatherlink.com 1.10,2013-06-30 09:22:00,
2013-06-30 05:36:00,62.5,62.0,29.77,ESE,107,0.0,0.0,99,0.00,,,0.00,weatherlink.com 1.10,2013-06-30 09:36:00,
2013-06-30 05:51:00,62.4,62.0,29.77,ESE,107,0.0,0.0,99,0.00,,,0.00,weatherlink.com 1.10,2013-06-30 09:51:00,
2013-06-30 06:05:00,62.4,62.0,29.78,ESE,106,0.0,0.0,99,0.00,,,0.00,weatherlink.com 1.10,2013-06-30 10:05:00,
2013-06-30 06:20:00,62.4,62.0,29.78,ESE,105,0.0,0.0,98,0.00,,,0.00,weatherlink.com 1.10,2013-06-30 10:20:00,
2013-06-30 06:34:00,62.5,62.0,29.79,ESE,106,0.0,0.0,99,0.00,,,0.00,weatherlink.com 1.10,2013-06-30 10:34:00,
2013-06-30 06:48:00,62.6,62.0,29.79,ESE,106,0.0,0.0,98,0.00,,,0.00,weatherlink.com 1.10,2013-06-30 10:48:00,
2013-06-30 07:03:00,62.8,62.0,29.80,ESE,106,0.0,0.0,98,0.00,,,0.00,weatherlink.com 1.10,2013-06-30 11:03:00,
2013-06-30 07:18:00,63.2,63.0,29.80,ESE,106,0.0,0.0,98,0.00,,,0.00,weatherlink.com 1.10,2013-06-30 11:18:00,
2013-06-30 07:32:00,63.7,63.0,29.80,ESE,106,0.0,0.0,98,0.00,,,0.00,weatherlink.com 1.10,2013-06-30 11:32:00,
2013-06-30 07:46:00,64.4,63.0,29.80,ESE,106,0.0,0.0,96,0.00,,,0.00,weatherlink.com 1.10,2013-06-30 11:46:00,
2013-06-30 08:01:00,65.2,64.0,29.81,ESE,106,0.0,0.0,96,0.00,,,0.00,weatherlink.com 1.10,2013-06-30 12:01:00,
2013-06-30 08:15:00,66.4,65.0,29.81,ESE,106,0.0,0.0,94,0.00,,,0.00,weatherlink.com 1.10,2013-06-30 12:15:00,
2013-06-30 08:30:00,67.4,64.0,29.81,WNW,302,0.0,1.0,90,0.00,,,0.00,weatherlink.com 1.10,2013-06-30 12:30:00,
2013-06-30 08:44:00,68.5,66.0,29.82,North,2,0.0,1.0,91,0.00,,,0.00,weatherlink.com 1.10,2013-06-30 12:44:00,
2013-06-30 08:59:00,69.5,67.0,29.82,WSW,239,0.0,0.0,91,0.00,,,0.00,weatherlink.com 1.10,2013-06-30 12:59:00,
2013-06-30 09:13:00,70.3,65.0,29.82,North,3,0.0,2.0,84,0.00,,,0.00,weatherlink.com 1.10,2013-06-30 13:13:00,
2013-06-30 09:28:00,71.4,66.0,29.82,NNE,29,0.0,1.0,83,0.00,,,0.00,weatherlink.com 1.10,2013-06-30 13:28:00,
2013-06-30 09:42:00,72.3,66.0,29.83,ESE,104,1.0,3.0,80,0.00,,,0.00,weatherlink.com 1.10,2013-06-30 13:42:00,
2013-06-30 09:57:00,73.2,66.0,29.82,NW,325,0.0,2.0,77,0.00,,,0.00,weatherlink.com 1.10,2013-06-30 13:57:00,
2013-06-30 10:11:00,74.8,66.0,29.82,NE,49,0.0,2.0,75,0.00,,,0.00,weatherlink.com 1.10,2013-06-30 14:11:00,
2013-06-30 10:26:00,74.6,65.0,29.83,WSW,251,0.0,4.0,72,0.00,,,0.00,weatherlink.com 1.10,2013-06-30 14:26:00,
2013-06-30 10:40:00,75.5,66.0,29.83,North,353,0.0,1.0,72,0.00,,,0.00,weatherlink.com 1.10,2013-06-30 14:40:00,
2013-06-30 10:54:00,75.6,66.0,29.83,WSW,247,1.0,2.0,72,0.00,,,0.00,weatherlink.com 1.10,2013-06-30 14:54:00,
2013-06-30 11:09:00,76.3,66.0,29.83,NW,318,0.0,3.0,70,0.00,,,0.00,weatherlink.com 1.10,2013-06-30 15:09:00,
2013-06-30 11:23:00,77.5,66.0,29.83,WSW,248,1.0,4.0,67,0.00,,,0.00,weatherlink.com 1.10,2013-06-30 15:23:00,
2013-06-30 11:38:00,77.2,65.0,29.83,WSW,238,0.0,2.0,67,0.00,,,0.00,weatherlink.com 1.10,2013-06-30 15:38:00,
2013-06-30 11:52:00,77.5,66.0,29.83,WSW,241,0.0,6.0,68,0.00,,,0.00,weatherlink.com 1.10,2013-06-30 15:52:00,
2013-06-30 12:07:00,79.1,67.0,29.83,NE,46,0.0,3.0,66,0.00,,,0.00,weatherlink.com 1.10,2013-06-30 16:07:00,
2013-06-30 12:21:00,79.1,66.0,29.84,NNE,21,1.0,2.0,64,0.00,,,0.00,weatherlink.com 1.10,2013-06-30 16:21:00,
2013-06-30 12:36:00,78.9,68.0,29.83,NNW,347,0.0,2.0,69,0.00,,,0.00,weatherlink.com 1.10,2013-06-30 16:36:00,
2013-06-30 12:50:00,79.5,67.0,29.83,West,279,0.0,4.0,65,0.00,,,0.00,weatherlink.com 1.10,2013-06-30 16:50:00,
2013-06-30 13:05:00,80.6,66.0,29.83,North,352,1.0,5.0,62,0.00,,,0.00,weatherlink.com 1.10,2013-06-30 17:05:00,
2013-06-30 13:19:00,80.3,67.0,29.82,NNE,17,0.0,5.0,63,0.00,,,0.00,weatherlink.com 1.10,2013-06-30 17:19:00,
2013-06-30 13:33:00,80.7,67.0,29.83,NW,309,0.0,4.0,64,0.00,,,0.00,weatherlink.com 1.10,2013-06-30 17:33:00,
2013-06-30 13:48:00,81.4,68.0,29.83,ESE,118,0.0,7.0,63,0.00,,,0.00,weatherlink.com 1.10,2013-06-30 17:48:00,
2013-06-30 14:03:00,81.7,68.0,29.83,WNW,301,0.0,6.0,63,0.00,,,0.00,weatherlink.com 1.10,2013-06-30 18:03:00,
2013-06-30 14:17:00,81.6,68.0,29.83,WNW,290,0.0,6.0,63,0.00,,,0.00,weatherlink.com 1.10,2013-06-30 18:17:00,
2013-06-30 14:31:00,81.3,68.0,29.83,West,267,2.0,6.0,64,0.00,,,0.00,weatherlink.com 1.10,2013-06-30 18:31:00,
2013-06-30 14:46:00,80.1,67.0,29.83,West,274,4.0,4.0,65,0.00,,,0.00,weatherlink.com 1.10,2013-06-30 18:46:00,
2013-06-30 15:00:00,79.7,67.0,29.83,West,272,2.0,2.0,66,0.00,,,0.00,weatherlink.com 1.10,2013-06-30 19:00:00,
2013-06-30 15:15:00,79.7,67.0,29.83,NW,316,1.0,3.0,66,0.00,,,0.00,weatherlink.com 1.10,2013-06-30 19:15:00,
2013-06-30 15:29:00,81.2,67.0,29.82,NW,314,0.0,3.0,63,0.00,,,0.00,weatherlink.com 1.10,2013-06-30 19:29:00,
2013-06-30 15:44:00,81.9,67.0,29.83,NNW,343,1.0,5.0,61,0.00,,,0.00,weatherlink.com 1.10,2013-06-30 19:44:00,
2013-06-30 15:58:00,80.6,66.0,29.83,North,4,1.0,2.0,62,0.00,,,0.00,weatherlink.com 1.10,2013-06-30 19:58:00,
2013-06-30 16:13:00,81.9,67.0,29.82,NW,311,0.0,3.0,61,0.00,,,0.00,weatherlink.com 1.10,2013-06-30 20:13:00,
2013-06-30 16:27:00,82.8,68.0,29.83,North,352,0.0,3.0,61,0.00,,,0.00,weatherlink.com 1.10,2013-06-30 20:27:00,
2013-06-30 16:42:00,81.5,68.0,29.83,NNW,340,0.0,1.0,64,0.00,,,0.00,weatherlink.com 1.10,2013-06-30 20:42:00,
2013-06-30 16:56:00,81.2,68.0,29.82,NNE,20,2.0,7.0,64,0.00,,,0.00,weatherlink.com 1.10,2013-06-30 20:56:00,
2013-06-30 17:11:00,80.8,67.0,29.83,NNW,330,0.0,6.0,64,0.00,,,0.00,weatherlink.com 1.10,2013-06-30 21:11:00,
2013-06-30 17:25:00,79.7,68.0,29.83,NE,46,5.0,6.0,67,0.00,,,0.00,weatherlink.com 1.10,2013-06-30 21:25:00,
2013-06-30 17:39:00,79.2,68.0,29.84,NNE,20,0.0,6.0,69,0.00,,,0.00,weatherlink.com 1.10,2013-06-30 21:39:00,
2013-06-30 17:54:00,78.9,67.0,29.84,NE,41,0.0,5.0,66,0.00,,,0.00,weatherlink.com 1.10,2013-06-30 21:54:00,
2013-06-30 18:09:00,79.1,68.0,29.84,NE,56,1.0,5.0,68,0.00,,,0.00,weatherlink.com 1.10,2013-06-30 22:09:00,
2013-06-30 18:23:00,78.5,67.0,29.85,NE,40,1.0,4.0,67,0.00,,,0.00,weatherlink.com 1.10,2013-06-30 22:23:00,
2013-06-30 18:37:00,77.9,66.0,29.85,ENE,58,1.0,6.0,68,0.00,,,0.00,weatherlink.com 1.10,2013-06-30 22:37:00,
2013-06-30 18:52:00,77.8,66.0,29.86,North,8,0.0,6.0,66,0.00,,,0.00,weatherlink.com 1.10,2013-06-30 22:52:00,
2013-06-30 19:06:00,77.5,65.0,29.86,NNE,32,0.0,4.0,65,0.00,,,0.00,weatherlink.com 1.10,2013-06-30 23:06:00,
2013-06-30 19:21:00,76.8,65.0,29.86,WNW,295,1.0,4.0,66,0.00,,,0.00,weatherlink.com 1.10,2013-06-30 23:21:00,
2013-06-30 19:35:00,76.4,63.0,29.86,North,352,0.0,6.0,63,0.00,,,0.00,weatherlink.com 1.10,2013-06-30 23:35:00,
2013-06-30 19:50:00,75.8,63.0,29.87,ENE,60,1.0,1.0,65,0.00,,,0.00,weatherlink.com 1.10,2013-06-30 23:50:00,
2013-06-30 20:04:00,75.3,63.0,29.88,ENE,60,0.0,1.0,66,0.00,,,0.00,weatherlink.com 1.10,2013-07-01 00:04:00,
2013-06-30 20:19:00,74.6,62.0,29.88,NNE,32,0.0,1.0,66,0.00,,,0.00,weatherlink.com 1.10,2013-07-01 00:19:00,
2013-06-30 20:33:00,73.7,62.0,29.89,NW,314,1.0,1.0,68,0.00,,,0.00,weatherlink.com 1.10,2013-07-01 00:33:00,
2013-06-30 20:47:00,73.0,63.0,29.89,WSW,251,0.0,1.0,71,0.00,,,0.00,weatherlink.com 1.10,2013-07-01 00:47:00,
2013-06-30 21:02:00,71.9,63.0,29.90,WSW,250,0.0,0.0,73,0.00,,,0.00,weatherlink.com 1.10,2013-07-01 01:02:00,
2013-06-30 21:17:00,71.8,63.0,29.90,WSW,250,0.0,0.0,75,0.00,,,0.00,weatherlink.com 1.10,2013-07-01 01:17:00,
2013-06-30 21:31:00,71.2,63.0,29.91,WSW,250,0.0,0.0,75,0.00,,,0.00,weatherlink.com 1.10,2013-07-01 01:31:00,
2013-06-30 21:45:00,71.1,64.0,29.92,WSW,250,0.0,0.0,78,0.00,,,0.00,weatherlink.com 1.10,2013-07-01 01:45:00,
2013-06-30 22:00:00,70.9,64.0,29.92,WSW,250,0.0,0.0,79,0.00,,,0.00,weatherlink.com 1.10,2013-07-01 02:00:00,
2013-06-30 22:14:00,70.8,63.0,29.92,WSW,250,0.0,0.0,77,0.00,,,0.00,weatherlink.com 1.10,2013-07-01 02:14:00,
2013-06-30 22:29:00,70.1,66.0,29.93,WSW,250,0.0,0.0,86,0.03,,,0.04,weatherlink.com 1.10,2013-07-01 02:29:00,
2013-06-30 22:43:00,67.9,65.0,29.93,WSW,250,0.0,0.0,91,0.08,,,0.08,weatherlink.com 1.10,2013-07-01 02:43:00,
2013-06-30 22:57:00,67.1,66.0,29.93,WSW,250,0.0,0.0,95,0.11,,,0.11,weatherlink.com 1.10,2013-07-01 02:57:00,
2013-06-30 23:12:00,66.8,66.0,29.93,WSW,250,0.0,0.0,96,0.11,,,0.11,weatherlink.com 1.10,2013-07-01 03:12:00,
2013-06-30 23:27:00,66.8,66.0,29.92,WSW,250,0.0,0.0,96,0.09,,,0.11,weatherlink.com 1.10,2013-07-01 03:27:00,
2013-06-30 23:41:00,66.7,66.0,29.92,WSW,250,0.0,0.0,97,0.03,,,0.11,weatherlink.com 1.10,2013-07-01 03:41:00,
2013-06-30 23:55:00,66.8,66.0,29.92,WSW,250,0.0,0.0,97,0.01,,,0.11,weatherlink.com 1.10,2013-07-01 03:55:00,